Time;durP1;ratioP1;P1;durP2;ratioP2;P2;SDS_P1;SDS_P2;PMS_P1;PMS_P2;Temp;Humidity;BMP_temperature;BMP_pressure;BME280_temperature;BME280_humidity;BME280_pressure;Samples;Min_cycle;Max_cycle;Signal;HPM_P1;HPM_P2
2022/12/06 00:01:39;;;;;;;11.87;10.67;;;;;;;;;;5071865;28;20447;-76
2022/12/06 00:04:08;;;;;;;12.47;11.27;;;;;;;;;;5071806;28;20506;-77
2022/12/06 00:06:38;;;;;;;12.23;11.13;;;;;;;;;;5071058;28;20480;-77
2022/12/06 00:09:06;;;;;;;13.17;11.80;;;;;;;;;;5074217;28;20425;-77
2022/12/06 00:11:34;;;;;;;12.70;11.60;;;;;;;;;;5078632;28;20540;-76
2022/12/06 00:14:02;;;;;;;13.00;11.70;;;;;;;;;;5071799;28;20524;-75
2022/12/06 00:16:29;;;;;;;12.67;11.47;;;;;;;;;;5067309;28;20824;-76
2022/12/06 00:18:56;;;;;;;12.40;11.10;;;;;;;;;;5073617;28;20532;-78
2022/12/06 00:21:27;;;;;;;12.40;11.13;;;;;;;;;;5071715;28;20842;-76
2022/12/06 00:23:55;;;;;;;13.27;11.97;;;;;;;;;;5070987;28;20441;-76
2022/12/06 00:26:22;;;;;;;11.50;10.43;;;;;;;;;;5071361;28;20457;-78
2022/12/06 00:28:52;;;;;;;10.90;9.90;;;;;;;;;;5071166;28;20453;-76
2022/12/06 00:31:20;;;;;;;10.93;9.93;;;;;;;;;;5071245;28;20478;-77
2022/12/06 00:33:47;;;;;;;10.70;9.80;;;;;;;;;;5070893;28;20880;-76
2022/12/06 00:36:16;;;;;;;12.00;10.77;;;;;;;;;;5070693;28;20956;-76
2022/12/06 00:38:45;;;;;;;11.63;10.53;;;;;;;;;;5071892;28;20902;-76
2022/12/06 00:41:13;;;;;;;11.80;10.70;;;;;;;;;;5095943;28;20644;-74
2022/12/06 00:43:40;;;;;;;11.73;10.63;;;;;;;;;;5097181;28;20449;-76
2022/12/06 00:46:08;;;;;;;11.40;10.17;;;;;;;;;;5096187;28;20487;-76
2022/12/06 00:48:35;;;;;;;11.53;10.43;;;;;;;;;;5096345;28;20428;-77
2022/12/06 00:51:03;;;;;;;10.93;9.83;;;;;;;;;;5096931;28;20456;-75
2022/12/06 00:53:30;;;;;;;11.20;10.20;;;;;;;;;;5095929;28;20523;-75
2022/12/06 00:55:58;;;;;;;10.77;9.67;;;;;;;;;;5094213;28;20448;-76
2022/12/06 00:58:26;;;;;;;11.13;10.00;;;;;;;;;;5073644;28;20467;-76
2022/12/06 01:00:53;;;;;;;12.50;11.20;;;;;;;;;;5072541;28;20446;-77
2022/12/06 01:03:20;;;;;;;12.93;11.57;;;;;;;;;;5071071;28;20528;-77
2022/12/06 01:05:48;;;;;;;14.57;12.93;;;;;;;;;;5070912;28;20494;-76
2022/12/06 01:08:16;;;;;;;13.00;11.70;;;;;;;;;;5070565;28;20471;-77
2022/12/06 01:10:43;;;;;;;14.73;13.23;;;;;;;;;;5070370;28;20450;-76
2022/12/06 01:13:11;;;;;;;14.27;12.80;;;;;;;;;;5070284;28;20503;-77
2022/12/06 01:15:38;;;;;;;13.97;12.57;;;;;;;;;;5070649;28;20468;-77
2022/12/06 01:18:06;;;;;;;15.90;14.30;;;;;;;;;;5070442;28;20447;-76
2022/12/06 01:20:33;;;;;;;16.10;14.50;;;;;;;;;;5070682;28;20531;-76
2022/12/06 01:23:00;;;;;;;17.20;15.40;;;;;;;;;;5069781;28;20432;-77
2022/12/06 01:25:27;;;;;;;16.20;14.60;;;;;;;;;;5070453;28;20468;-77
2022/12/06 01:27:54;;;;;;;17.43;15.53;;;;;;;;;;5070471;28;20445;-77
2022/12/06 01:30:22;;;;;;;20.60;15.77;;;;;;;;;;5071865;28;20448;-78
2022/12/06 01:32:49;;;;;;;15.60;14.00;;;;;;;;;;5073955;28;20987;-76
2022/12/06 01:35:16;;;;;;;17.27;15.00;;;;;;;;;;5073964;28;20987;-76
2022/12/06 01:37:44;;;;;;;16.77;15.07;;;;;;;;;;5074564;28;20456;-76
2022/12/06 01:40:12;;;;;;;18.00;16.10;;;;;;;;;;5074550;28;20460;-77
2022/12/06 01:42:39;;;;;;;18.23;16.30;;;;;;;;;;5073845;28;20789;-77
2022/12/06 01:45:06;;;;;;;18.07;16.20;;;;;;;;;;5074725;28;21051;-77
2022/12/06 01:47:36;;;;;;;18.10;16.30;;;;;;;;;;5074208;28;20915;-77
2022/12/06 01:50:05;;;;;;;19.73;16.13;;;;;;;;;;5074184;28;20952;-77
2022/12/06 01:52:35;;;;;;;17.10;15.30;;;;;;;;;;5073420;28;20999;-76
2022/12/06 01:55:03;;;;;;;18.67;16.30;;;;;;;;;;5073695;28;20460;-75
2022/12/06 01:57:30;;;;;;;18.43;16.30;;;;;;;;;;5058200;28;20826;-76
2022/12/06 01:59:57;;;;;;;18.83;16.40;;;;;;;;;;5053728;28;20441;-76
2022/12/06 02:02:24;;;;;;;18.70;16.00;;;;;;;;;;5053481;28;20445;-77
2022/12/06 02:04:53;;;;;;;18.57;16.57;;;;;;;;;;5053088;28;20466;-76
2022/12/06 02:07:21;;;;;;;18.53;16.20;;;;;;;;;;5053611;28;20526;-77
2022/12/06 02:09:49;;;;;;;18.97;16.83;;;;;;;;;;5053755;28;20441;-76
2022/12/06 02:12:16;;;;;;;22.27;18.20;;;;;;;;;;5054222;28;20992;-77
2022/12/06 02:14:45;;;;;;;20.03;17.93;;;;;;;;;;5054403;28;20469;-76
2022/12/06 02:17:18;;;;;;;21.73;17.67;;;;;;;;;;5054888;28;20536;-77
2022/12/06 02:19:54;;;;;;;23.00;18.77;;;;;;;;;;5055238;28;20426;-77
2022/12/06 02:22:27;;;;;;;20.43;16.40;;;;;;;;;;5054446;28;21131;-77
2022/12/06 02:24:59;;;;;;;22.97;17.60;;;;;;;;;;5053570;28;20473;-76
2022/12/06 02:27:44;;;;;;;21.90;18.27;;;;;;;;;;5053386;28;20429;-76
2022/12/06 02:30:16;;;;;;;19.93;17.80;;;;;;;;;;5053409;28;20503;-77
2022/12/06 02:32:48;;;;;;;20.20;17.20;;;;;;;;;;5052818;28;20552;-77
2022/12/06 02:35:20;;;;;;;19.57;17.03;;;;;;;;;;5052712;28;20473;-76
2022/12/06 02:37:49;;;;;;;21.33;18.50;;;;;;;;;;5053388;28;20434;-76
2022/12/06 02:40:18;;;;;;;23.07;17.60;;;;;;;;;;5052794;28;20837;-77
2022/12/06 02:42:48;;;;;;;24.93;18.00;;;;;;;;;;5052572;28;20440;-76
2022/12/06 02:45:17;;;;;;;20.73;17.97;;;;;;;;;;5053073;28;20458;-77
2022/12/06 02:47:47;;;;;;;21.80;19.50;;;;;;;;;;5058070;28;20445;-76
2022/12/06 02:50:16;;;;;;;23.53;18.43;;;;;;;;;;5072785;28;20445;-77
2022/12/06 02:52:45;;;;;;;21.33;17.10;;;;;;;;;;5072805;28;20477;-77
2022/12/06 02:55:13;;;;;;;19.60;16.70;;;;;;;;;;5072959;28;20975;-76
2022/12/06 02:57:43;;;;;;;18.83;16.90;;;;;;;;;;5073884;28;20443;-76
2022/12/06 03:00:30;;;;;;;20.53;16.87;;;;;;;;;;5075016;28;20452;-74
2022/12/06 03:03:03;;;;;;;20.57;17.17;;;;;;;;;;5072635;28;20433;-76
2022/12/06 03:05:34;;;;;;;19.60;17.60;;;;;;;;;;5072385;28;20477;-76
2022/12/06 03:08:06;;;;;;;20.60;17.17;;;;;;;;;;5072213;28;20535;-76
2022/12/06 03:10:39;;;;;;;19.83;16.60;;;;;;;;;;5072333;28;20433;-77
2022/12/06 03:13:09;;;;;;;20.93;18.40;;;;;;;;;;5072464;28;20487;-76
2022/12/06 03:15:38;;;;;;;17.73;15.93;;;;;;;;;;5074406;28;20465;-76
2022/12/06 03:18:11;;;;;;;21.40;17.43;;;;;;;;;;5072840;28;20448;-76
2022/12/06 03:20:42;;;;;;;18.73;16.73;;;;;;;;;;5073972;28;20433;-75
2022/12/06 03:23:12;;;;;;;21.77;17.20;;;;;;;;;;5072589;28;20964;-76
2022/12/06 03:25:39;;;;;;;18.70;15.90;;;;;;;;;;5072163;28;20468;-76
2022/12/06 03:28:08;;;;;;;19.63;17.60;;;;;;;;;;5071625;28;20807;-77
2022/12/06 03:30:35;;;;;;;22.17;16.30;;;;;;;;;;5071651;28;20449;-76
2022/12/06 03:33:02;;;;;;;20.77;17.23;;;;;;;;;;5071300;28;20555;-76
2022/12/06 03:35:33;;;;;;;18.20;16.37;;;;;;;;;;5071766;28;20475;-77
2022/12/06 03:38:05;;;;;;;17.50;15.70;;;;;;;;;;5072042;28;20780;-77
2022/12/06 03:40:33;;;;;;;19.27;17.00;;;;;;;;;;5071895;28;20447;-76
2022/12/06 03:43:00;;;;;;;19.47;17.07;;;;;;;;;;5089859;28;20441;-76
2022/12/06 03:45:30;;;;;;;20.90;16.70;;;;;;;;;;5095336;28;20465;-75
2022/12/06 03:48:01;;;;;;;18.10;15.67;;;;;;;;;;5090156;28;20455;-77
2022/12/06 03:50:30;;;;;;;17.90;15.83;;;;;;;;;;5073935;28;20425;-75
2022/12/06 03:52:59;;;;;;;17.83;15.93;;;;;;;;;;5071344;28;20506;-76
2022/12/06 03:55:26;;;;;;;18.97;15.53;;;;;;;;;;5071900;28;20468;-76
2022/12/06 03:57:54;;;;;;;17.10;15.27;;;;;;;;;;5071586;28;20440;-76
2022/12/06 04:00:21;;;;;;;18.97;15.70;;;;;;;;;;5071194;28;20924;-77
2022/12/06 04:02:48;;;;;;;16.90;15.10;;;;;;;;;;5071095;28;20441;-76
2022/12/06 04:05:15;;;;;;;17.63;15.83;;;;;;;;;;5072383;28;20472;-76
2022/12/06 04:07:42;;;;;;;16.40;14.50;;;;;;;;;;5072147;28;20836;-76
2022/12/06 04:10:11;;;;;;;16.93;15.20;;;;;;;;;;5071003;28;20787;-76
2022/12/06 04:15:23;;;;;;;16.70;15.00;;;;;;;;;;5050736;28;20519;-76
2022/12/06 04:23:16;;;;;;;16.93;15.27;;;;;;;;;;5055211;28;20818;-76
2022/12/06 04:25:45;;;;;;;19.70;15.70;;;;;;;;;;5054703;28;20462;-76
2022/12/06 04:39:10;;;;;;;16.50;14.77;;;;;;;;;;5050977;28;20698;-77
2022/12/06 04:44:24;;;;;;;18.70;15.40;;;;;;;;;;5054132;28;20444;-76
2022/12/06 04:46:51;;;;;;;16.00;14.47;;;;;;;;;;5054279;28;20468;-77
2022/12/06 04:49:18;;;;;;;17.97;16.07;;;;;;;;;;5052350;28;20452;-76
2022/12/06 04:51:45;;;;;;;17.50;14.70;;;;;;;;;;5054425;28;20445;-76
2022/12/06 04:54:12;;;;;;;16.43;14.93;;;;;;;;;;5070477;28;20468;-77
2022/12/06 04:56:41;;;;;;;14.53;13.03;;;;;;;;;;5070112;28;20464;-76
2022/12/06 04:59:08;;;;;;;17.07;14.53;;;;;;;;;;5070457;28;20535;-76
2022/12/06 05:01:35;;;;;;;18.20;16.37;;;;;;;;;;5070876;28;20446;-76
2022/12/06 05:04:02;;;;;;;15.53;13.90;;;;;;;;;;5070162;28;20444;-76
2022/12/06 05:06:29;;;;;;;16.67;14.97;;;;;;;;;;5071269;28;20476;-75
2022/12/06 05:08:56;;;;;;;17.10;15.30;;;;;;;;;;5070735;28;20441;-76
2022/12/06 05:11:23;;;;;;;17.20;14.80;;;;;;;;;;5070360;28;20467;-76
2022/12/06 05:13:52;;;;;;;17.33;14.37;;;;;;;;;;5070478;28;20476;-76
2022/12/06 05:16:19;;;;;;;16.17;14.47;;;;;;;;;;5070239;28;20464;-76
2022/12/06 05:18:46;;;;;;;16.27;14.63;;;;;;;;;;5070577;28;20444;-76
2022/12/06 05:21:14;;;;;;;16.77;15.10;;;;;;;;;;5070553;28;20452;-76
2022/12/06 05:23:41;;;;;;;20.03;14.23;;;;;;;;;;5069667;28;20464;-76
2022/12/06 05:26:11;;;;;;;16.10;14.50;;;;;;;;;;5069867;28;20478;-77
2022/12/06 05:28:38;;;;;;;15.47;14.00;;;;;;;;;;5070565;28;20432;-77
2022/12/06 05:31:06;;;;;;;16.40;14.70;;;;;;;;;;5069872;28;20448;-76
2022/12/06 05:33:34;;;;;;;15.63;14.10;;;;;;;;;;5069678;28;20936;-77
2022/12/06 05:36:06;;;;;;;16.47;14.90;;;;;;;;;;5069538;28;20588;-78
2022/12/06 05:38:33;;;;;;;16.60;14.77;;;;;;;;;;5069850;28;20448;-77
2022/12/06 05:41:00;;;;;;;15.53;14.13;;;;;;;;;;5069964;28;20928;-77
2022/12/06 05:43:28;;;;;;;16.70;15.00;;;;;;;;;;5070157;28;20479;-76
2022/12/06 05:45:55;;;;;;;17.23;15.43;;;;;;;;;;5069975;28;20583;-77
2022/12/06 05:48:24;;;;;;;16.50;14.60;;;;;;;;;;5070158;28;20444;-77
2022/12/06 05:50:52;;;;;;;15.83;14.23;;;;;;;;;;5072908;28;20825;-78
2022/12/06 05:53:19;;;;;;;16.67;13.60;;;;;;;;;;5075414;28;20472;-76
2022/12/06 05:55:47;;;;;;;17.13;14.73;;;;;;;;;;5076876;28;20465;-76
2022/12/06 05:58:14;;;;;;;15.80;14.30;;;;;;;;;;5074724;28;20474;-76
2022/12/06 06:00:41;;;;;;;15.90;14.40;;;;;;;;;;5083564;28;20436;-76
2022/12/06 06:03:08;;;;;;;15.20;12.67;;;;;;;;;;5090752;28;20424;-76
2022/12/06 06:05:36;;;;;;;16.43;14.83;;;;;;;;;;5079306;28;21026;-76
2022/12/06 06:08:04;;;;;;;17.20;14.50;;;;;;;;;;5069825;28;20441;-77
2022/12/06 06:10:31;;;;;;;15.83;14.00;;;;;;;;;;5070733;28;20444;-76
2022/12/06 06:12:58;;;;;;;15.83;13.83;;;;;;;;;;5070780;28;20445;-77
2022/12/06 06:15:25;;;;;;;15.23;13.80;;;;;;;;;;5052066;28;20468;-76
2022/12/06 06:17:52;;;;;;;11.40;10.40;;;;;;;;;;5055911;28;20448;-76
2022/12/06 06:20:19;;;;;;;10.60;9.60;;;;;;;;;;5055695;28;20445;-78
2022/12/06 06:22:47;;;;;;;7.90;7.20;;;;;;;;;;5062539;28;20437;-75
2022/12/06 06:25:14;;;;;;;8.50;7.70;;;;;;;;;;5068187;28;20666;-75
2022/12/06 06:27:41;;;;;;;8.10;7.30;;;;;;;;;;5078167;28;20430;-76
2022/12/06 06:30:10;;;;;;;7.97;7.27;;;;;;;;;;5074492;28;20441;-77
2022/12/06 06:32:37;;;;;;;8.70;7.93;;;;;;;;;;5056239;28;20452;-76
2022/12/06 06:35:04;;;;;;;8.27;7.50;;;;;;;;;;5054244;28;20485;-76
2022/12/06 06:37:32;;;;;;;8.83;7.93;;;;;;;;;;5054019;28;20456;-76
2022/12/06 06:40:00;;;;;;;7.70;6.93;;;;;;;;;;5054341;28;20499;-79
2022/12/06 06:42:28;;;;;;;8.30;7.60;;;;;;;;;;5053722;28;20968;-77
2022/12/06 06:44:55;;;;;;;8.27;6.97;;;;;;;;;;5054250;28;20458;-77
2022/12/06 06:47:22;;;;;;;7.50;6.80;;;;;;;;;;5054474;28;20510;-76
2022/12/06 06:49:49;;;;;;;8.20;7.43;;;;;;;;;;5056344;28;20945;-78
2022/12/06 06:52:16;;;;;;;7.70;7.03;;;;;;;;;;5054235;28;20445;-76
2022/12/06 06:54:43;;;;;;;8.60;7.90;;;;;;;;;;5053572;28;20488;-77
2022/12/06 06:57:12;;;;;;;7.73;7.03;;;;;;;;;;5053138;28;20440;-76
2022/12/06 06:59:39;;;;;;;8.80;8.10;;;;;;;;;;5053172;28;20446;-77
2022/12/06 07:02:06;;;;;;;8.30;7.37;;;;;;;;;;5053409;28;20452;-78
2022/12/06 07:04:33;;;;;;;10.37;8.13;;;;;;;;;;5052879;28;20456;-76
2022/12/06 07:07:00;;;;;;;9.93;8.93;;;;;;;;;;5052566;28;20453;-77
2022/12/06 07:09:28;;;;;;;8.40;7.50;;;;;;;;;;5053028;28;20452;-77
2022/12/06 07:11:56;;;;;;;8.90;8.20;;;;;;;;;;5053840;28;20445;-78
2022/12/06 07:14:24;;;;;;;7.97;7.30;;;;;;;;;;5053664;28;20477;-77
2022/12/06 07:16:51;;;;;;;9.27;8.47;;;;;;;;;;5053314;28;20450;-77
2022/12/06 07:19:18;;;;;;;8.37;7.67;;;;;;;;;;5053689;28;20445;-77
2022/12/06 07:21:45;;;;;;;8.50;6.87;;;;;;;;;;5053545;28;20469;-76
2022/12/06 07:24:12;;;;;;;7.63;6.90;;;;;;;;;;5053456;28;20803;-77
2022/12/06 07:26:40;;;;;;;8.40;7.60;;;;;;;;;;5052869;28;20469;-77
2022/12/06 07:29:07;;;;;;;10.00;8.83;;;;;;;;;;5053447;28;20442;-77
2022/12/06 07:31:35;;;;;;;9.37;7.77;;;;;;;;;;5053006;28;20789;-77
2022/12/06 07:34:03;;;;;;;8.13;7.33;;;;;;;;;;5052538;28;20492;-77
2022/12/06 07:36:31;;;;;;;8.60;7.70;;;;;;;;;;5070777;28;20564;-77
2022/12/06 07:38:58;;;;;;;7.33;6.73;;;;;;;;;;5072962;28;20444;-77
2022/12/06 07:46:59;;;;;;;6.53;6.03;;;;;;;;;;5072054;28;20412;-76
2022/12/06 07:49:26;;;;;;;8.10;6.00;;;;;;;;;;5071756;28;20814;-76
2022/12/06 07:51:54;;;;;;;7.47;6.77;;;;;;;;;;5072732;28;20453;-75
2022/12/06 07:54:21;;;;;;;7.30;6.70;;;;;;;;;;5072243;28;21006;-77
2022/12/06 07:56:48;;;;;;;7.73;6.83;;;;;;;;;;5073380;28;20523;-76
2022/12/06 07:59:15;;;;;;;8.33;7.53;;;;;;;;;;5073931;28;20425;-77
2022/12/06 08:01:43;;;;;;;11.50;7.87;;;;;;;;;;5073888;28;20447;-77
2022/12/06 08:04:11;;;;;;;8.83;7.93;;;;;;;;;;5073681;28;20445;-77
2022/12/06 08:06:39;;;;;;;8.43;7.60;;;;;;;;;;5072157;28;20468;-77
2022/12/06 08:09:06;;;;;;;8.20;7.53;;;;;;;;;;5072229;28;20448;-76
2022/12/06 08:11:34;;;;;;;7.93;7.20;;;;;;;;;;5071631;28;20568;-77
2022/12/06 08:14:01;;;;;;;8.13;7.33;;;;;;;;;;5071200;28;20476;-77
2022/12/06 08:16:28;;;;;;;8.80;8.00;;;;;;;;;;5071363;28;20784;-77
2022/12/06 08:18:56;;;;;;;8.30;7.57;;;;;;;;;;5071548;28;20455;-77
2022/12/06 08:21:25;;;;;;;8.90;7.53;;;;;;;;;;5071327;28;20445;-77
2022/12/06 08:23:53;;;;;;;8.87;8.07;;;;;;;;;;5070746;28;20994;-76
2022/12/06 08:26:20;;;;;;;8.37;7.67;;;;;;;;;;5071372;28;20461;-78
2022/12/06 08:28:47;;;;;;;8.70;7.80;;;;;;;;;;5072611;28;21138;-76
2022/12/06 08:31:16;;;;;;;8.07;7.30;;;;;;;;;;5076521;28;20449;-77
2022/12/06 08:33:43;;;;;;;8.20;7.50;;;;;;;;;;5071381;28;20829;-77
2022/12/06 08:36:11;;;;;;;8.40;7.70;;;;;;;;;;5071751;28;20588;-75
2022/12/06 08:38:40;;;;;;;10.10;7.80;;;;;;;;;;5071188;28;20475;-77
2022/12/06 08:41:54;;;;;;;9.00;7.57;;;;;;;;;;5071790;28;20445;-77
2022/12/06 08:43:56;;;;;;;8.43;7.63;;;;;;;;;;5070936;28;20549;-77
2022/12/06 08:46:23;;;;;;;8.73;8.03;;;;;;;;;;5071536;28;20461;-77
2022/12/06 08:48:50;;;;;;;9.50;8.70;;;;;;;;;;5071473;28;20441;-77
2022/12/06 08:51:17;;;;;;;12.37;8.40;;;;;;;;;;5072226;28;20912;-78
2022/12/06 08:53:46;;;;;;;9.23;8.20;;;;;;;;;;5068808;28;20816;-76
2022/12/06 08:56:13;;;;;;;9.60;8.70;;;;;;;;;;5071394;28;20495;-77
2022/12/06 08:58:40;;;;;;;8.93;8.13;;;;;;;;;;5071882;28;20440;-76
2022/12/06 09:01:11;;;;;;;10.20;9.30;;;;;;;;;;5075643;28;20455;-77
2022/12/06 09:03:38;;;;;;;9.50;8.67;;;;;;;;;;5080728;28;20459;-77
2022/12/06 09:06:05;;;;;;;10.43;9.40;;;;;;;;;;5073144;28;20469;-77
2022/12/06 09:08:32;;;;;;;11.50;9.70;;;;;;;;;;5073561;28;20443;-76
2022/12/06 09:11:00;;;;;;;11.00;9.90;;;;;;;;;;5071139;28;20436;-77
2022/12/06 09:13:28;;;;;;;10.40;9.40;;;;;;;;;;5078625;28;20444;-77
2022/12/06 09:15:55;;;;;;;10.67;9.17;;;;;;;;;;5089357;28;20480;-75
2022/12/06 09:18:22;;;;;;;10.70;9.73;;;;;;;;;;5079234;28;20437;-76
2022/12/06 09:20:49;;;;;;;11.00;9.00;;;;;;;;;;5082130;28;20437;-76
2022/12/06 09:23:16;;;;;;;10.97;10.07;;;;;;;;;;5078820;28;20460;-77
2022/12/06 09:25:43;;;;;;;10.80;9.80;;;;;;;;;;5075144;28;21004;-76
2022/12/06 09:28:12;;;;;;;11.17;10.17;;;;;;;;;;5071821;28;20455;-77
2022/12/06 09:30:39;;;;;;;11.40;10.40;;;;;;;;;;5070851;28;20449;-77
2022/12/06 09:33:06;;;;;;;11.63;10.53;;;;;;;;;;5070354;28;20459;-78
2022/12/06 09:35:34;;;;;;;11.43;10.43;;;;;;;;;;5069952;28;20480;-77
2022/12/06 09:38:02;;;;;;;11.30;10.30;;;;;;;;;;5070748;28;20444;-76
2022/12/06 09:40:33;;;;;;;11.20;10.20;;;;;;;;;;5070654;28;20437;-76
2022/12/06 09:43:08;;;;;;;12.37;11.10;;;;;;;;;;5070651;28;20420;-77
2022/12/06 09:45:48;;;;;;;11.23;10.23;;;;;;;;;;5070162;28;20456;-76
2022/12/06 09:48:25;;;;;;;13.53;11.00;;;;;;;;;;5070250;28;20421;-76
2022/12/06 09:50:58;;;;;;;11.40;10.30;;;;;;;;;;5071049;28;20437;-77
2022/12/06 09:53:29;;;;;;;11.97;10.77;;;;;;;;;;5073834;28;20498;-77
2022/12/06 09:56:02;;;;;;;14.57;13.13;;;;;;;;;;5072801;28;20549;-77
2022/12/06 09:58:36;;;;;;;14.87;12.17;;;;;;;;;;5074118;28;20524;-77
2022/12/06 10:01:11;;;;;;;13.20;11.90;;;;;;;;;;5069191;28;20444;-76
2022/12/06 10:03:50;;;;;;;13.63;12.23;;;;;;;;;;5054869;28;20431;-75
2022/12/06 10:06:18;;;;;;;18.30;13.57;;;;;;;;;;5056418;28;20476;-77
2022/12/06 10:09:02;;;;;;;22.33;14.43;;;;;;;;;;5058006;28;20453;-77
2022/12/06 10:11:37;;;;;;;15.47;12.50;;;;;;;;;;5058654;28;20429;-77
2022/12/06 10:14:13;;;;;;;16.00;14.23;;;;;;;;;;5057868;28;20448;-77
2022/12/06 10:16:47;;;;;;;16.73;14.60;;;;;;;;;;5058031;28;20552;-77
2022/12/06 10:19:19;;;;;;;20.47;14.80;;;;;;;;;;5074039;28;20513;-77
2022/12/06 10:21:51;;;;;;;16.30;13.90;;;;;;;;;;5063371;28;20432;-76
2022/12/06 10:24:25;;;;;;;16.20;14.50;;;;;;;;;;5053704;28;20422;-77
2022/12/06 10:26:53;;;;;;;16.37;14.63;;;;;;;;;;5053711;28;20428;-77
2022/12/06 10:29:21;;;;;;;16.83;15.03;;;;;;;;;;5053921;28;20441;-78
2022/12/06 10:31:54;;;;;;;17.33;14.90;;;;;;;;;;5053558;28;20445;-77
2022/12/06 10:34:22;;;;;;;16.47;13.43;;;;;;;;;;5053370;28;20426;-77
2022/12/06 10:36:55;;;;;;;17.00;14.50;;;;;;;;;;5053450;28;20448;-78
2022/12/06 10:39:24;;;;;;;15.33;12.53;;;;;;;;;;5053613;28;20449;-77
2022/12/06 10:41:54;;;;;;;14.23;12.60;;;;;;;;;;5053129;28;20525;-77
2022/12/06 10:44:25;;;;;;;14.30;12.33;;;;;;;;;;5053552;28;20438;-77
2022/12/06 10:47:02;;;;;;;16.27;12.17;;;;;;;;;;5053181;28;20422;-77
2022/12/06 10:49:32;;;;;;;15.67;12.83;;;;;;;;;;5068953;28;20444;-77
2022/12/06 10:52:03;;;;;;;13.97;12.47;;;;;;;;;;5073071;28;20803;-76
2022/12/06 10:54:33;;;;;;;12.53;11.23;;;;;;;;;;5072827;28;20428;-78
2022/12/06 10:57:02;;;;;;;16.10;11.60;;;;;;;;;;5073465;28;20838;-77
2022/12/06 10:59:33;;;;;;;14.07;11.30;;;;;;;;;;5060869;28;20446;-77
2022/12/06 11:02:04;;;;;;;15.27;10.90;;;;;;;;;;5067877;28;20443;-77
2022/12/06 11:04:34;;;;;;;11.70;10.50;;;;;;;;;;5064557;28;20629;-77
2022/12/06 11:07:02;;;;;;;12.53;9.80;;;;;;;;;;5062024;28;20924;-78
2022/12/06 11:09:32;;;;;;;12.87;11.53;;;;;;;;;;5070115;28;20463;-77
2022/12/06 11:12:00;;;;;;;16.47;10.07;;;;;;;;;;5073086;28;20460;-78
2022/12/06 11:14:30;;;;;;;13.00;11.00;;;;;;;;;;5068269;28;20451;-77
2022/12/06 11:17:00;;;;;;;13.33;10.50;;;;;;;;;;5057237;28;20456;-77
2022/12/06 11:19:30;;;;;;;13.13;10.40;;;;;;;;;;5061174;28;20442;-77
2022/12/06 11:22:00;;;;;;;11.90;10.07;;;;;;;;;;5075661;28;20436;-76
2022/12/06 11:24:31;;;;;;;10.37;9.00;;;;;;;;;;5073129;28;20432;-77
2022/12/06 11:27:01;;;;;;;13.33;11.10;;;;;;;;;;5079488;28;20429;-77
2022/12/06 11:29:29;;;;;;;12.70;10.00;;;;;;;;;;5078588;28;20444;-77
2022/12/06 11:31:58;;;;;;;11.73;9.80;;;;;;;;;;5074324;28;20780;-77
2022/12/06 11:34:27;;;;;;;10.40;9.07;;;;;;;;;;5072427;28;20935;-78
2022/12/06 11:36:57;;;;;;;11.17;9.30;;;;;;;;;;5074411;28;20441;-78
2022/12/06 11:39:24;;;;;;;11.57;8.73;;;;;;;;;;5073026;28;20443;-77
2022/12/06 11:41:53;;;;;;;10.43;9.10;;;;;;;;;;5072749;28;20449;-76
2022/12/06 11:44:21;;;;;;;10.17;8.77;;;;;;;;;;5074355;28;21220;-78
2022/12/06 11:46:50;;;;;;;10.80;8.57;;;;;;;;;;5072205;28;20977;-77
2022/12/06 11:49:28;;;;;;;8.90;8.00;;;;;;;;;;5072298;28;20451;-76
2022/12/06 11:51:58;;;;;;;9.33;7.60;;;;;;;;;;5073599;28;20433;-77
2022/12/06 11:54:28;;;;;;;9.20;8.27;;;;;;;;;;5073240;28;20448;-76
2022/12/06 11:56:58;;;;;;;8.60;7.67;;;;;;;;;;5072851;28;20476;-77
2022/12/06 11:59:25;;;;;;;8.00;7.20;;;;;;;;;;5072671;28;20460;-77
2022/12/06 12:01:54;;;;;;;8.47;7.30;;;;;;;;;;5071996;28;20448;-78
2022/12/06 12:04:31;;;;;;;8.30;7.07;;;;;;;;;;5073227;28;20983;-77
2022/12/06 12:07:01;;;;;;;8.03;7.10;;;;;;;;;;5074762;28;20452;-77
2022/12/06 12:09:30;;;;;;;9.43;7.20;;;;;;;;;;5072496;28;20441;-77
2022/12/06 12:12:00;;;;;;;9.50;7.07;;;;;;;;;;5072080;28;20501;-77
2022/12/06 12:14:28;;;;;;;8.50;7.30;;;;;;;;;;5070939;28;20436;-77
2022/12/06 12:16:58;;;;;;;7.10;6.27;;;;;;;;;;5071926;28;20499;-77
2022/12/06 12:19:31;;;;;;;7.30;5.97;;;;;;;;;;5072924;28;20436;-77
2022/12/06 12:22:00;;;;;;;9.43;5.97;;;;;;;;;;5074948;28;20933;-77
2022/12/06 12:24:43;;;;;;;7.90;6.20;;;;;;;;;;5074761;28;20805;-76
2022/12/06 12:27:28;;;;;;;7.73;6.00;;;;;;;;;;5074475;28;20429;-78
2022/12/06 12:30:13;;;;;;;6.90;5.47;;;;;;;;;;5074226;28;20451;-77
2022/12/06 12:32:40;;;;;;;10.33;5.90;;;;;;;;;;5071578;28;20817;-77
2022/12/06 12:35:25;;;;;;;6.07;5.43;;;;;;;;;;5072156;28;20476;-77
2022/12/06 12:37:56;;;;;;;6.30;5.60;;;;;;;;;;5071806;28;20436;-77
2022/12/06 12:40:23;;;;;;;7.80;6.77;;;;;;;;;;5071007;28;20444;-77
2022/12/06 12:42:56;;;;;;;6.73;6.13;;;;;;;;;;5071251;28;20455;-77
2022/12/06 12:45:25;;;;;;;9.13;6.33;;;;;;;;;;5071696;28;20467;-77
2022/12/06 12:47:56;;;;;;;7.53;6.80;;;;;;;;;;5070985;28;20476;-77
2022/12/06 12:50:24;;;;;;;10.70;6.47;;;;;;;;;;5072175;28;20482;-77
2022/12/06 12:52:52;;;;;;;7.40;6.53;;;;;;;;;;5076040;28;20536;-77
2022/12/06 12:55:21;;;;;;;6.80;6.30;;;;;;;;;;5075730;28;21068;-78
2022/12/06 12:57:49;;;;;;;6.93;6.33;;;;;;;;;;5089172;28;20433;-76
2022/12/06 13:00:16;;;;;;;7.57;6.97;;;;;;;;;;5092554;28;20445;-77
2022/12/06 13:02:45;;;;;;;8.90;6.43;;;;;;;;;;5092417;28;20536;-77
2022/12/06 13:05:15;;;;;;;7.30;6.50;;;;;;;;;;5084634;28;20475;-77
2022/12/06 13:07:43;;;;;;;6.90;6.20;;;;;;;;;;5072524;28;20494;-77
2022/12/06 13:10:18;;;;;;;7.23;6.53;;;;;;;;;;5071369;28;20445;-77
2022/12/06 13:12:49;;;;;;;7.30;6.27;;;;;;;;;;5074804;28;20404;-76
2022/12/06 13:15:17;;;;;;;7.03;6.33;;;;;;;;;;5072595;28;20878;-77
2022/12/06 13:17:45;;;;;;;7.40;6.70;;;;;;;;;;5072226;28;20441;-77
2022/12/06 13:20:20;;;;;;;8.03;7.23;;;;;;;;;;5070608;28;20452;-77
2022/12/06 13:22:49;;;;;;;8.07;7.20;;;;;;;;;;5070393;28;20439;-77
2022/12/06 13:25:16;;;;;;;7.47;6.77;;;;;;;;;;5072504;28;20474;-76
2022/12/06 13:27:46;;;;;;;6.97;6.20;;;;;;;;;;5074595;28;20441;-77
2022/12/06 13:30:17;;;;;;;9.70;7.10;;;;;;;;;;5075137;28;20452;-77
2022/12/06 13:32:46;;;;;;;7.33;6.63;;;;;;;;;;5074293;28;20448;-78
2022/12/06 13:35:20;;;;;;;7.30;6.57;;;;;;;;;;5075196;28;20456;-77
2022/12/06 13:37:52;;;;;;;7.60;6.90;;;;;;;;;;5080900;28;20426;-78
2022/12/06 13:40:38;;;;;;;7.20;6.60;;;;;;;;;;5079625;28;20421;-77
2022/12/06 13:43:06;;;;;;;7.10;6.40;;;;;;;;;;5074588;28;20544;-77
2022/12/06 13:45:42;;;;;;;7.60;6.90;;;;;;;;;;5075242;28;20482;-76
2022/12/06 13:48:37;;;;;;;9.00;7.60;;;;;;;;;;5074679;28;20876;-76
2022/12/06 13:51:05;;;;;;;7.50;6.80;;;;;;;;;;5038490;28;20935;-76
2022/12/06 13:53:33;;;;;;;7.50;6.90;;;;;;;;;;5074663;28;20450;-77
2022/12/06 13:56:02;;;;;;;7.83;7.13;;;;;;;;;;5074751;28;21003;-78
2022/12/06 13:58:40;;;;;;;10.20;7.20;;;;;;;;;;5075023;28;20974;-76
2022/12/06 14:01:33;;;;;;;6.90;6.30;;;;;;;;;;5076009;28;20432;-77
2022/12/06 14:04:03;;;;;;;7.83;7.03;;;;;;;;;;5075701;28;20428;-76
2022/12/06 14:06:43;;;;;;;7.43;6.57;;;;;;;;;;5075188;28;20496;-78
2022/12/06 14:09:10;;;;;;;8.47;7.67;;;;;;;;;;5075489;28;20459;-77
2022/12/06 14:11:37;;;;;;;8.10;7.30;;;;;;;;;;5077841;28;20440;-76
2022/12/06 14:14:07;;;;;;;8.13;7.33;;;;;;;;;;5075104;28;20470;-76
2022/12/06 14:16:38;;;;;;;7.60;6.80;;;;;;;;;;5074237;28;20500;-77
2022/12/06 14:19:13;;;;;;;8.47;7.63;;;;;;;;;;5073383;28;20424;-77
2022/12/06 14:21:42;;;;;;;6.37;5.77;;;;;;;;;;5073447;28;20443;-77
2022/12/06 14:24:25;;;;;;;10.80;7.10;;;;;;;;;;5072493;28;20478;-78
2022/12/06 14:26:52;;;;;;;7.47;6.77;;;;;;;;;;5074098;28;20432;-77
2022/12/06 14:29:21;;;;;;;6.90;6.40;;;;;;;;;;5073489;28;21097;-76
2022/12/06 14:31:50;;;;;;;8.60;6.60;;;;;;;;;;5074072;28;20444;-77
2022/12/06 14:34:24;;;;;;;6.53;6.00;;;;;;;;;;5073330;28;20468;-77
2022/12/06 14:36:51;;;;;;;6.97;6.23;;;;;;;;;;5072959;28;20460;-77
2022/12/06 14:39:19;;;;;;;6.50;5.80;;;;;;;;;;5073848;28;20505;-77
2022/12/06 14:44:36;;;;;;;6.70;6.17;;;;;;;;;;5073939;28;20401;-77
2022/12/06 14:47:05;;;;;;;6.87;6.27;;;;;;;;;;5073525;28;20444;-76
2022/12/06 14:52:20;;;;;;;7.57;6.50;;;;;;;;;;5073143;28;20396;-77
2022/12/06 14:54:48;;;;;;;6.80;6.20;;;;;;;;;;5073799;28;20476;-77
2022/12/06 14:57:20;;;;;;;7.60;7.00;;;;;;;;;;5057565;28;20923;-77
2022/12/06 14:59:47;;;;;;;7.43;6.83;;;;;;;;;;5069280;28;20460;-76
2022/12/06 15:02:22;;;;;;;7.83;6.97;;;;;;;;;;5074618;28;20455;-77
2022/12/06 15:04:49;;;;;;;8.60;7.50;;;;;;;;;;5076124;28;20833;-77
2022/12/06 15:07:30;;;;;;;7.40;6.70;;;;;;;;;;5074538;28;20428;-77
2022/12/06 15:10:07;;;;;;;7.70;6.67;;;;;;;;;;5076586;28;20778;-77
2022/12/06 15:15:37;;;;;;;7.00;6.40;;;;;;;;;;5072881;28;20435;-77
2022/12/06 15:18:14;;;;;;;7.37;6.60;;;;;;;;;;5074713;28;20452;-79